Time;durP1;ratioP1;P1;durP2;ratioP2;P2;SDS_P1;SDS_P2;PMS_P1;PMS_P2;Temp;Humidity;BMP_temperature;BMP_pressure;BME280_temperature;BME280_humidity;BME280_pressure;Samples;Min_cycle;Max_cycle;Signal;HPM_P1;HPM_P2
2023/03/05 00:02:06;;;;;;;30.60;14.87;;;;;;;;;;5033295;28;20282;-73
2023/03/05 00:04:31;;;;;;;27.65;14.60;;;;;;;;;;5046121;28;20798;-72
2023/03/05 00:06:56;;;;;;;27.38;14.52;;;;;;;;;;5053406;28;20056;-73
2023/03/05 00:09:21;;;;;;;29.98;14.93;;;;;;;;;;5026075;28;20738;-73
2023/03/05 00:11:46;;;;;;;32.03;14.90;;;;;;;;;;5033008;28;20025;-75
2023/03/05 00:14:12;;;;;;;33.07;15.47;;;;;;;;;;5013285;28;20388;-74
2023/03/05 00:16:37;;;;;;;31.08;16.48;;;;;;;;;;5012676;28;21032;-73
2023/03/05 00:19:03;;;;;;;26.90;15.20;;;;;;;;;;5025458;28;20043;-75
2023/03/05 00:21:33;;;;;;;30.20;14.38;;;;;;;;;;5046347;28;20643;-74
2023/03/05 00:24:02;;;;;;;28.63;15.48;;;;;;;;;;5018698;28;20033;-73
2023/03/05 00:26:27;;;;;;;24.38;15.05;;;;;;;;;;5046161;28;20029;-74
2023/03/05 00:28:56;;;;;;;30.67;13.98;;;;;;;;;;5042562;28;20044;-74
2023/03/05 00:31:28;;;;;;;30.30;14.30;;;;;;;;;;5032433;28;20052;-75
2023/03/05 00:33:55;;;;;;;35.83;15.48;;;;;;;;;;5022604;28;20029;-76
2023/03/05 00:36:20;;;;;;;35.60;15.13;;;;;;;;;;5040000;28;20029;-76
2023/03/05 00:38:45;;;;;;;25.85;14.35;;;;;;;;;;5057369;28;20047;-76
2023/03/05 00:41:11;;;;;;;26.80;14.83;;;;;;;;;;5021640;28;20475;-73
2023/03/05 00:43:36;;;;;;;27.30;15.23;;;;;;;;;;5031017;28;20704;-75
2023/03/05 00:46:01;;;;;;;27.30;13.98;;;;;;;;;;5048086;28;20079;-74
2023/03/05 00:48:26;;;;;;;23.63;13.27;;;;;;;;;;5039652;28;20033;-73
2023/03/05 00:50:52;;;;;;;28.80;16.97;;;;;;;;;;5016388;28;20499;-73
2023/03/05 00:53:17;;;;;;;24.70;13.85;;;;;;;;;;5016291;28;20910;-73
2023/03/05 00:55:43;;;;;;;36.55;16.73;;;;;;;;;;5030766;28;20037;-75
2023/03/05 00:58:08;;;;;;;28.08;15.63;;;;;;;;;;5026824;28;20055;-74
2023/03/05 01:00:33;;;;;;;27.43;15.13;;;;;;;;;;5022661;28;20068;-74
2023/03/05 01:02:58;;;;;;;28.35;14.20;;;;;;;;;;5018448;28;20287;-75
2023/03/05 01:05:24;;;;;;;33.03;16.05;;;;;;;;;;5020689;28;20032;-74
2023/03/05 01:07:52;;;;;;;29.87;15.60;;;;;;;;;;5044910;28;20403;-73
2023/03/05 01:10:18;;;;;;;29.40;14.18;;;;;;;;;;5028951;28;20288;-75
2023/03/05 01:12:43;;;;;;;27.35;14.30;;;;;;;;;;5037433;28;20423;-77
2023/03/05 01:15:09;;;;;;;25.97;14.53;;;;;;;;;;5032087;28;20124;-75
2023/03/05 01:17:34;;;;;;;23.73;14.02;;;;;;;;;;5050482;28;20362;-75
2023/03/05 01:19:59;;;;;;;28.52;15.25;;;;;;;;;;5043308;28;20464;-74
2023/03/05 01:22:24;;;;;;;25.45;13.73;;;;;;;;;;5023704;28;20516;-73
2023/03/05 01:24:50;;;;;;;29.50;14.37;;;;;;;;;;5043782;28;20021;-76
2023/03/05 01:27:15;;;;;;;28.25;13.05;;;;;;;;;;5028024;28;20284;-75
2023/03/05 01:29:40;;;;;;;27.50;13.07;;;;;;;;;;5030709;28;20043;-76
2023/03/05 01:32:05;;;;;;;29.73;15.40;;;;;;;;;;5039276;28;20283;-75
2023/03/05 01:34:31;;;;;;;29.23;14.73;;;;;;;;;;5021194;28;20040;-75
2023/03/05 01:36:56;;;;;;;23.50;13.80;;;;;;;;;;5030032;28;20294;-77
2023/03/05 01:39:21;;;;;;;29.83;14.90;;;;;;;;;;5049688;28;20029;-76
2023/03/05 01:41:46;;;;;;;30.60;15.57;;;;;;;;;;5027881;28;20044;-76
2023/03/05 01:44:22;;;;;;;25.63;13.80;;;;;;;;;;5044885;28;20036;-76
2023/03/05 01:46:47;;;;;;;31.67;14.48;;;;;;;;;;5014201;28;20283;-78
2023/03/05 01:49:13;;;;;;;29.83;15.68;;;;;;;;;;5043035;28;20071;-75
2023/03/05 01:51:44;;;;;;;27.08;14.85;;;;;;;;;;5041344;28;20735;-74
2023/03/05 01:54:10;;;;;;;32.22;15.30;;;;;;;;;;5012303;28;20033;-75
2023/03/05 01:56:36;;;;;;;26.45;13.27;;;;;;;;;;5043345;28;20034;-75
2023/03/05 01:59:02;;;;;;;35.30;16.40;;;;;;;;;;5042663;28;20025;-72
2023/03/05 02:01:29;;;;;;;24.42;14.23;;;;;;;;;;5018761;28;20541;-74
2023/03/05 02:03:54;;;;;;;29.23;15.38;;;;;;;;;;5042992;28;20025;-75
2023/03/05 02:06:19;;;;;;;30.92;15.77;;;;;;;;;;5025136;28;20510;-73
2023/03/05 02:08:45;;;;;;;27.55;13.75;;;;;;;;;;5042275;28;20032;-75
2023/03/05 02:11:10;;;;;;;24.50;13.80;;;;;;;;;;5030555;28;20040;-73
2023/03/05 02:13:39;;;;;;;25.35;13.23;;;;;;;;;;5025493;28;20288;-75
2023/03/05 02:16:05;;;;;;;29.05;14.90;;;;;;;;;;5026185;28;20033;-76
2023/03/05 02:18:30;;;;;;;27.58;14.45;;;;;;;;;;5023063;28;20048;-78
2023/03/05 02:20:55;;;;;;;23.73;12.07;;;;;;;;;;5018852;28;20057;-77
2023/03/05 02:23:21;;;;;;;28.63;16.13;;;;;;;;;;5042593;28;20534;-75
2023/03/05 02:25:47;;;;;;;28.92;14.27;;;;;;;;;;5036185;28;20499;-76
2023/03/05 02:28:15;;;;;;;24.77;13.63;;;;;;;;;;5030026;28;20029;-77
2023/03/05 02:30:40;;;;;;;30.02;15.35;;;;;;;;;;5047531;28;20029;-76
2023/03/05 02:33:05;;;;;;;27.67;13.82;;;;;;;;;;5042913;28;20029;-76
2023/03/05 02:35:31;;;;;;;28.87;13.63;;;;;;;;;;5018818;28;20033;-74
2023/03/05 02:37:56;;;;;;;26.40;14.10;;;;;;;;;;5046951;28;20294;-71
2023/03/05 02:40:21;;;;;;;28.40;13.40;;;;;;;;;;5029229;28;20028;-71
2023/03/05 02:42:47;;;;;;;26.40;13.63;;;;;;;;;;5045327;28;20041;-73
2023/03/05 02:45:13;;;;;;;34.13;16.48;;;;;;;;;;5045169;28;20074;-74
2023/03/05 02:47:38;;;;;;;28.13;15.60;;;;;;;;;;5045292;28;20101;-73
2023/03/05 02:50:04;;;;;;;26.95;15.02;;;;;;;;;;5042524;28;20025;-71
2023/03/05 02:52:30;;;;;;;25.10;13.35;;;;;;;;;;5027673;28;20052;-81
2023/03/05 02:54:55;;;;;;;28.38;15.52;;;;;;;;;;5044639;28;20472;-81
2023/03/05 02:57:20;;;;;;;26.25;14.55;;;;;;;;;;5019899;28;20025;-76
2023/03/05 02:59:45;;;;;;;25.75;13.77;;;;;;;;;;5016635;28;20026;-75
2023/03/05 03:02:11;;;;;;;27.92;15.55;;;;;;;;;;5041737;28;20033;-76
2023/03/05 03:04:36;;;;;;;29.92;15.80;;;;;;;;;;5016141;28;20041;-76
2023/03/05 03:07:01;;;;;;;26.45;13.55;;;;;;;;;;5027671;28;20884;-77
2023/03/05 03:09:27;;;;;;;24.55;12.15;;;;;;;;;;5035856;28;20025;-76
2023/03/05 03:11:52;;;;;;;22.97;12.83;;;;;;;;;;5023234;28;20229;-73
2023/03/05 03:14:18;;;;;;;24.55;12.85;;;;;;;;;;5016285;28;20363;-77
2023/03/05 03:16:43;;;;;;;23.67;12.35;;;;;;;;;;5029347;28;20029;-75
2023/03/05 03:19:08;;;;;;;25.50;14.10;;;;;;;;;;5034139;28;20033;-76
2023/03/05 03:21:33;;;;;;;28.03;14.43;;;;;;;;;;5020485;28;20382;-75
2023/03/05 03:23:58;;;;;;;25.40;12.48;;;;;;;;;;5019023;28;20363;-75
2023/03/05 03:26:24;;;;;;;22.90;12.43;;;;;;;;;;5032189;28;20547;-75
2023/03/05 03:28:49;;;;;;;28.13;12.52;;;;;;;;;;5027185;28;20043;-81
2023/03/05 03:31:14;;;;;;;29.45;13.60;;;;;;;;;;5035720;28;20032;-74
2023/03/05 03:33:40;;;;;;;27.10;13.43;;;;;;;;;;5037531;28;20033;-78
2023/03/05 03:36:05;;;;;;;22.50;11.77;;;;;;;;;;5032609;28;20040;-79
2023/03/05 03:38:30;;;;;;;22.02;12.90;;;;;;;;;;5027420;28;20667;-78
2023/03/05 03:40:56;;;;;;;25.92;12.60;;;;;;;;;;5026473;28;20486;-78
2023/03/05 03:43:21;;;;;;;25.58;13.18;;;;;;;;;;5043512;28;20112;-78
2023/03/05 03:45:46;;;;;;;27.90;13.87;;;;;;;;;;5023894;28;20130;-79
2023/03/05 03:48:11;;;;;;;27.70;14.88;;;;;;;;;;5028422;28;20271;-75
2023/03/05 03:50:38;;;;;;;28.73;14.27;;;;;;;;;;5036137;28;20041;-82
2023/03/05 03:53:03;;;;;;;23.75;11.90;;;;;;;;;;5044410;28;20432;-82
2023/03/05 03:55:28;;;;;;;25.20;13.00;;;;;;;;;;5042408;28;20120;-83
2023/03/05 03:57:53;;;;;;;25.42;13.15;;;;;;;;;;5030710;28;20315;-81
2023/03/05 04:00:19;;;;;;;25.83;14.53;;;;;;;;;;5028237;28;20361;-81
2023/03/05 04:02:44;;;;;;;26.17;11.68;;;;;;;;;;5027754;28;20675;-80
2023/03/05 04:05:09;;;;;;;24.53;12.93;;;;;;;;;;5051950;28;20036;-82
2023/03/05 04:07:34;;;;;;;26.75;14.32;;;;;;;;;;5030198;28;20287;-76
2023/03/05 04:10:00;;;;;;;27.45;12.85;;;;;;;;;;5038333;28;20494;-75
2023/03/05 04:12:25;;;;;;;23.60;11.83;;;;;;;;;;5048444;28;20029;-75
2023/03/05 04:14:50;;;;;;;28.70;13.50;;;;;;;;;;5047118;28;20348;-75
2023/03/05 04:17:15;;;;;;;27.77;14.32;;;;;;;;;;5042656;28;20329;-75
2023/03/05 04:19:41;;;;;;;20.73;12.07;;;;;;;;;;5040634;28;20116;-74
2023/03/05 04:22:09;;;;;;;24.58;12.32;;;;;;;;;;5044111;28;20017;-76
2023/03/05 04:24:35;;;;;;;26.00;13.18;;;;;;;;;;5048307;28;20032;-79
2023/03/05 04:27:00;;;;;;;23.75;11.20;;;;;;;;;;5027470;28;20029;-74
2023/03/05 04:29:25;;;;;;;21.98;11.02;;;;;;;;;;5041633;28;20025;-75
2023/03/05 04:31:51;;;;;;;24.73;12.27;;;;;;;;;;5023111;28;20087;-74
2023/03/05 04:34:16;;;;;;;20.38;11.25;;;;;;;;;;5017933;28;20025;-75
2023/03/05 04:36:41;;;;;;;21.77;9.83;;;;;;;;;;5031792;28;20032;-74
2023/03/05 04:39:06;;;;;;;27.60;10.48;;;;;;;;;;5051704;28;20661;-75
2023/03/05 04:41:32;;;;;;;22.50;10.30;;;;;;;;;;5027079;28;20052;-75
2023/03/05 04:43:57;;;;;;;23.52;9.63;;;;;;;;;;5040100;28;20025;-77
2023/03/05 04:46:22;;;;;;;19.40;10.05;;;;;;;;;;5051106;28;20068;-85
2023/03/05 04:48:47;;;;;;;23.13;9.80;;;;;;;;;;5019317;28;20468;-82
2023/03/05 04:51:13;;;;;;;21.43;10.57;;;;;;;;;;5051901;28;20634;-81
2023/03/05 04:53:38;;;;;;;23.83;11.98;;;;;;;;;;5040021;28;20653;-83
2023/03/05 04:56:03;;;;;;;17.53;8.90;;;;;;;;;;5052295;28;20051;-82
2023/03/05 04:58:30;;;;;;;21.27;9.30;;;;;;;;;;5017432;28;20288;-81
2023/03/05 05:01:01;;;;;;;18.90;10.07;;;;;;;;;;5043017;28;20059;-75
2023/03/05 05:03:27;;;;;;;21.35;10.02;;;;;;;;;;5013649;28;20355;-73
2023/03/05 05:05:56;;;;;;;17.95;9.55;;;;;;;;;;5041691;28;20132;-73
2023/03/05 05:08:22;;;;;;;;;;;;;;;;;;5028773;28;20032;-73
2023/03/05 05:11:07;;;;;;;20.52;10.60;;;;;;;;;;5027715;28;19913;-74
2023/03/05 05:13:33;;;;;;;19.13;8.65;;;;;;;;;;5012696;28;20037;-74
2023/03/05 05:15:58;;;;;;;21.90;9.95;;;;;;;;;;5027855;28;20087;-73
2023/03/05 05:18:24;;;;;;;20.03;10.17;;;;;;;;;;5026103;28;20025;-74
2023/03/05 05:20:49;;;;;;;16.95;8.35;;;;;;;;;;5037311;28;20260;-80
2023/03/05 05:23:14;;;;;;;18.67;9.52;;;;;;;;;;5020530;28;20025;-80
2023/03/05 05:25:40;;;;;;;18.73;8.88;;;;;;;;;;5055705;28;20040;-79
2023/03/05 05:28:05;;;;;;;23.27;10.55;;;;;;;;;;5043872;28;20036;-81
2023/03/05 05:30:30;;;;;;;24.10;11.88;;;;;;;;;;5049736;28;20090;-80
2023/03/05 05:32:56;;;;;;;24.23;9.93;;;;;;;;;;5033106;28;20021;-78
2023/03/05 05:35:21;;;;;;;19.42;8.60;;;;;;;;;;5035380;28;20527;-80
2023/03/05 05:37:46;;;;;;;19.50;9.68;;;;;;;;;;5045473;28;20033;-74
2023/03/05 05:40:12;;;;;;;20.23;10.40;;;;;;;;;;5029542;28;20487;-76
2023/03/05 05:42:37;;;;;;;20.45;9.63;;;;;;;;;;5025927;28;20104;-75
2023/03/05 05:45:02;;;;;;;20.17;10.30;;;;;;;;;;5020515;28;20022;-73
2023/03/05 05:47:28;;;;;;;22.27;11.25;;;;;;;;;;5015762;28;20280;-75
2023/03/05 05:49:54;;;;;;;20.25;9.18;;;;;;;;;;5031370;28;20142;-74
2023/03/05 05:52:19;;;;;;;20.98;9.48;;;;;;;;;;5044795;28;20032;-75
2023/03/05 05:54:44;;;;;;;19.17;10.57;;;;;;;;;;5024510;28;20047;-75
2023/03/05 05:57:09;;;;;;;20.48;10.95;;;;;;;;;;5040442;28;20617;-73
2023/03/05 05:59:35;;;;;;;23.57;11.13;;;;;;;;;;5022719;28;20083;-72
2023/03/05 06:02:01;;;;;;;21.95;10.85;;;;;;;;;;5028934;28;20853;-74
2023/03/05 06:04:26;;;;;;;21.25;10.85;;;;;;;;;;5026938;28;20029;-72
2023/03/05 06:06:51;;;;;;;22.77;10.17;;;;;;;;;;5026611;28;20091;-74
2023/03/05 06:09:17;;;;;;;19.17;9.38;;;;;;;;;;5022153;28;21032;-72
2023/03/05 06:11:42;;;;;;;20.40;10.27;;;;;;;;;;5012984;28;20029;-72
2023/03/05 06:14:08;;;;;;;22.90;11.17;;;;;;;;;;5025255;28;20033;-75
2023/03/05 06:16:33;;;;;;;20.98;10.38;;;;;;;;;;5042997;28;20805;-75
2023/03/05 06:19:03;;;;;;;21.67;9.75;;;;;;;;;;5023662;28;20103;-76
2023/03/05 06:21:28;;;;;;;20.88;10.57;;;;;;;;;;5013669;28;20017;-75
2023/03/05 06:23:53;;;;;;;19.40;10.25;;;;;;;;;;5025446;28;20170;-75
2023/03/05 06:26:19;;;;;;;19.02;11.23;;;;;;;;;;5025505;28;20033;-75
2023/03/05 06:28:45;;;;;;;22.48;10.30;;;;;;;;;;5027730;28;20025;-75
2023/03/05 06:31:14;;;;;;;20.60;10.07;;;;;;;;;;5030597;28;20073;-76
2023/03/05 06:33:40;;;;;;;19.85;10.05;;;;;;;;;;5008927;28;20064;-78
2023/03/05 06:36:07;;;;;;;21.25;11.43;;;;;;;;;;5019258;28;20064;-78
2023/03/05 06:38:33;;;;;;;19.95;10.82;;;;;;;;;;5024168;28;20033;-78
2023/03/05 06:41:04;;;;;;;20.83;11.18;;;;;;;;;;5009872;28;20037;-79
2023/03/05 06:43:32;;;;;;;18.98;10.98;;;;;;;;;;5022832;28;20428;-78
2023/03/05 06:46:00;;;;;;;19.73;10.88;;;;;;;;;;5017328;28;20037;-79
2023/03/05 06:48:26;;;;;;;22.77;11.52;;;;;;;;;;5009155;28;20488;-78
2023/03/05 06:50:51;;;;;;;20.00;10.52;;;;;;;;;;4998990;28;20088;-71
2023/03/05 06:53:16;;;;;;;22.40;11.53;;;;;;;;;;5024121;28;20029;-74
2023/03/05 06:55:41;;;;;;;21.55;10.55;;;;;;;;;;5005078;28;20283;-74
2023/03/05 06:58:07;;;;;;;25.17;11.67;;;;;;;;;;5014958;28;20029;-74
2023/03/05 07:00:32;;;;;;;19.05;9.95;;;;;;;;;;5011668;28;20264;-74
2023/03/05 07:02:57;;;;;;;21.42;10.50;;;;;;;;;;5030871;28;20559;-74
2023/03/05 07:05:22;;;;;;;22.10;11.17;;;;;;;;;;5026328;28;20025;-74
2023/03/05 07:07:48;;;;;;;20.17;10.10;;;;;;;;;;5043184;28;20293;-75
2023/03/05 07:10:13;;;;;;;20.63;9.63;;;;;;;;;;5020329;28;20275;-79
2023/03/05 07:12:38;;;;;;;22.83;11.97;;;;;;;;;;5032582;28;20370;-77
2023/03/05 07:15:04;;;;;;;21.70;11.15;;;;;;;;;;5020793;28;20335;-76
2023/03/05 07:17:29;;;;;;;21.55;10.98;;;;;;;;;;5026877;28;20170;-75
2023/03/05 07:19:54;;;;;;;24.88;13.25;;;;;;;;;;5020466;28;20057;-75
2023/03/05 07:22:19;;;;;;;24.13;12.43;;;;;;;;;;5016529;28;20025;-74
2023/03/05 07:24:44;;;;;;;19.97;10.37;;;;;;;;;;5039386;28;20314;-75
2023/03/05 07:27:10;;;;;;;23.90;12.43;;;;;;;;;;5015956;28;20295;-75
2023/03/05 07:29:35;;;;;;;22.65;11.77;;;;;;;;;;5028675;28;20475;-76
2023/03/05 07:32:00;;;;;;;25.00;12.27;;;;;;;;;;5024125;28;20044;-75
2023/03/05 07:34:26;;;;;;;22.10;11.38;;;;;;;;;;5034697;28;20048;-75
2023/03/05 07:36:51;;;;;;;21.20;10.73;;;;;;;;;;5021889;28;20029;-75
2023/03/05 07:39:20;;;;;;;20.77;11.20;;;;;;;;;;5019356;28;20276;-76
2023/03/05 07:41:46;;;;;;;20.40;10.73;;;;;;;;;;5018019;28;20492;-76
2023/03/05 07:44:11;;;;;;;21.50;11.20;;;;;;;;;;5050263;28;20043;-74
2023/03/05 07:46:37;;;;;;;20.92;11.45;;;;;;;;;;5044900;28;20025;-72
2023/03/05 07:49:02;;;;;;;22.38;11.00;;;;;;;;;;5022776;28;20034;-79
2023/03/05 07:51:28;;;;;;;26.17;10.90;;;;;;;;;;5036065;28;20038;-75
2023/03/05 07:53:54;;;;;;;23.42;11.65;;;;;;;;;;5049820;28;20021;-75
2023/03/05 07:56:21;;;;;;;21.30;11.20;;;;;;;;;;5029649;28;20059;-75
2023/03/05 07:58:46;;;;;;;18.50;11.00;;;;;;;;;;5046669;28;20048;-74
2023/03/05 08:01:13;;;;;;;19.83;11.33;;;;;;;;;;5046440;28;20369;-73
2023/03/05 08:03:38;;;;;;;19.15;11.68;;;;;;;;;;5018065;28;20284;-75
2023/03/05 08:06:04;;;;;;;25.27;11.40;;;;;;;;;;5039507;28;20032;-77
2023/03/05 08:08:29;;;;;;;26.30;11.57;;;;;;;;;;5029822;28;20055;-77
2023/03/05 08:10:54;;;;;;;21.17;12.00;;;;;;;;;;5046251;28;20026;-77
2023/03/05 08:13:20;;;;;;;22.10;11.70;;;;;;;;;;5048073;28;20397;-77
2023/03/05 08:15:45;;;;;;;21.48;11.50;;;;;;;;;;5019647;28;20374;-77
2023/03/05 08:18:12;;;;;;;23.05;11.20;;;;;;;;;;5052126;28;20025;-76
2023/03/05 08:20:38;;;;;;;22.67;10.23;;;;;;;;;;5044095;28;20099;-75
2023/03/05 08:23:03;;;;;;;25.63;11.98;;;;;;;;;;5023409;28;20028;-73
2023/03/05 08:25:29;;;;;;;21.05;11.10;;;;;;;;;;5036878;28;20041;-75
2023/03/05 08:27:54;;;;;;;25.85;12.85;;;;;;;;;;5017996;28;20029;-74
2023/03/05 08:30:21;;;;;;;22.33;11.55;;;;;;;;;;5031997;28;20439;-74
2023/03/05 08:32:47;;;;;;;21.00;11.55;;;;;;;;;;5021866;28;20029;-77
2023/03/05 08:35:13;;;;;;;24.98;12.90;;;;;;;;;;5021338;28;20135;-76
2023/03/05 08:37:38;;;;;;;21.20;10.45;;;;;;;;;;5034871;28;20320;-76
2023/03/05 08:40:04;;;;;;;20.10;11.20;;;;;;;;;;5032268;28;20056;-76
2023/03/05 08:42:29;;;;;;;25.23;10.68;;;;;;;;;;5038400;28;20691;-76
2023/03/05 08:44:54;;;;;;;24.08;11.80;;;;;;;;;;5029493;28;20077;-76
2023/03/05 08:47:19;;;;;;;21.50;10.75;;;;;;;;;;5038725;28;20025;-79
2023/03/05 08:49:45;;;;;;;22.05;11.90;;;;;;;;;;5037565;28;20029;-77
2023/03/05 08:52:11;;;;;;;23.55;10.82;;;;;;;;;;5023604;28;20576;-78
2023/03/05 08:54:36;;;;;;;21.25;11.43;;;;;;;;;;5048143;28;20472;-77
2023/03/05 08:57:02;;;;;;;19.27;10.35;;;;;;;;;;5041408;28;20021;-77
2023/03/05 08:59:27;;;;;;;20.00;10.73;;;;;;;;;;5048246;28;20684;-77
2023/03/05 09:01:52;;;;;;;20.20;10.63;;;;;;;;;;5047852;28;20029;-73
2023/03/05 09:04:17;;;;;;;23.15;11.23;;;;;;;;;;5019734;28;20021;-74
2023/03/05 09:06:43;;;;;;;21.05;11.80;;;;;;;;;;5029019;28;20427;-74
2023/03/05 09:09:08;;;;;;;20.23;11.20;;;;;;;;;;5032391;28;20029;-73
2023/03/05 09:11:35;;;;;;;21.88;10.88;;;;;;;;;;5020144;28;20036;-73
2023/03/05 09:14:01;;;;;;;21.95;11.40;;;;;;;;;;5030125;28;20111;-72
2023/03/05 09:16:26;;;;;;;23.02;11.32;;;;;;;;;;5030124;28;20029;-73
2023/03/05 09:18:51;;;;;;;20.73;12.00;;;;;;;;;;5044131;28;20048;-78
2023/03/05 09:21:17;;;;;;;22.27;11.60;;;;;;;;;;5046614;28;20287;-73
2023/03/05 09:23:42;;;;;;;26.15;12.18;;;;;;;;;;5046574;28;20272;-76
2023/03/05 09:26:08;;;;;;;25.88;12.00;;;;;;;;;;5016061;28;20094;-76
2023/03/05 09:28:34;;;;;;;26.92;11.45;;;;;;;;;;5026675;28;20020;-75
2023/03/05 09:31:03;;;;;;;26.92;11.93;;;;;;;;;;5027099;28;20030;-74
2023/03/05 09:33:29;;;;;;;24.48;11.50;;;;;;;;;;5020665;28;20037;-77
2023/03/05 09:35:54;;;;;;;24.52;13.18;;;;;;;;;;5025391;28;20029;-76
2023/03/05 09:38:20;;;;;;;25.37;13.80;;;;;;;;;;5024728;28;20515;-80
2023/03/05 09:40:58;;;;;;;23.95;13.63;;;;;;;;;;5058474;28;20458;-73
2023/03/05 09:43:49;;;;;;;23.17;11.95;;;;;;;;;;5030426;28;20372;-74
2023/03/05 09:46:30;;;;;;;21.77;12.50;;;;;;;;;;4994731;28;20068;-70
2023/03/05 09:48:59;;;;;;;22.23;12.93;;;;;;;;;;5037179;28;20021;-72
2023/03/05 09:51:28;;;;;;;24.77;12.57;;;;;;;;;;5045678;28;20025;-73
2023/03/05 09:53:53;;;;;;;24.67;13.38;;;;;;;;;;5045894;28;20048;-73
2023/03/05 09:56:21;;;;;;;26.93;12.57;;;;;;;;;;5046330;28;20120;-77
2023/03/05 09:59:13;;;;;;;22.65;12.38;;;;;;;;;;5020192;28;20485;-77
2023/03/05 10:01:41;;;;;;;22.42;12.25;;;;;;;;;;5009709;28;20067;-76
2023/03/05 10:04:19;;;;;;;22.15;11.98;;;;;;;;;;5029846;28;20081;-75
2023/03/05 10:06:50;;;;;;;21.98;11.38;;;;;;;;;;5024535;28;20202;-75
2023/03/05 10:09:30;;;;;;;20.45;12.13;;;;;;;;;;5026634;28;20035;-77
2023/03/05 10:12:06;;;;;;;25.15;13.70;;;;;;;;;;5022768;28;20108;-76
2023/03/05 10:14:37;;;;;;;24.13;12.80;;;;;;;;;;5021486;28;20053;-81
2023/03/05 10:17:21;;;;;;;23.90;12.23;;;;;;;;;;5013877;28;20496;-73
2023/03/05 10:19:52;;;;;;;22.85;12.43;;;;;;;;;;5026138;28;20067;-72
2023/03/05 10:22:19;;;;;;;22.55;12.90;;;;;;;;;;5038219;28;20025;-73
2023/03/05 10:24:51;;;;;;;22.92;13.48;;;;;;;;;;5021195;28;20033;-73
2023/03/05 10:27:18;;;;;;;24.48;13.32;;;;;;;;;;5029628;28;20044;-74
2023/03/05 10:30:02;;;;;;;22.73;11.65;;;;;;;;;;5044517;28;20070;-73
2023/03/05 10:32:30;;;;;;;24.60;12.80;;;;;;;;;;5041103;28;20486;-76
2023/03/05 10:34:58;;;;;;;23.55;12.82;;;;;;;;;;5042326;28;20041;-73
2023/03/05 10:37:31;;;;;;;20.38;11.77;;;;;;;;;;5038720;28;20026;-73
2023/03/05 10:40:00;;;;;;;29.88;13.68;;;;;;;;;;5025505;28;20025;-73
2023/03/05 10:42:28;;;;;;;21.33;12.13;;;;;;;;;;5019328;28;20103;-73
2023/03/05 10:44:55;;;;;;;24.80;13.32;;;;;;;;;;5049048;28;20039;-73
2023/03/05 10:47:29;;;;;;;23.42;13.07;;;;;;;;;;5020529;28;20032;-71
2023/03/05 10:49:55;;;;;;;53.15;25.65;;;;;;;;;;5031518;28;20040;-71
2023/03/05 10:52:28;;;;;;;30.08;14.07;;;;;;;;;;5047572;28;20032;-76
2023/03/05 10:54:53;;;;;;;23.10;12.98;;;;;;;;;;5035806;28;20140;-77
2023/03/05 10:57:22;;;;;;;22.38;12.45;;;;;;;;;;5037645;28;20429;-75
2023/03/05 10:59:50;;;;;;;21.20;12.13;;;;;;;;;;5041332;28;20067;-76
2023/03/05 11:02:16;;;;;;;23.70;12.95;;;;;;;;;;5013360;28;20033;-76
2023/03/05 11:04:41;;;;;;;26.80;11.63;;;;;;;;;;5040151;28;20025;-75
2023/03/05 11:07:27;;;;;;;21.10;12.43;;;;;;;;;;5041871;28;20033;-74
2023/03/05 11:10:11;;;;;;;21.45;12.25;;;;;;;;;;5028568;28;20045;-79
2023/03/05 11:12:37;;;;;;;22.70;12.02;;;;;;;;;;5030846;28;20060;-75
2023/03/05 11:15:05;;;;;;;21.48;13.02;;;;;;;;;;5010190;28;20524;-76
2023/03/05 11:17:33;;;;;;;27.52;14.68;;;;;;;;;;5049348;28;20060;-75
2023/03/05 11:20:22;;;;;;;20.40;12.68;;;;;;;;;;5041624;28;20040;-75
2023/03/05 11:23:05;;;;;;;21.30;12.05;;;;;;;;;;5034341;28;20151;-75
2023/03/05 11:25:34;;;;;;;23.65;12.45;;;;;;;;;;5048469;28;20040;-74
2023/03/05 11:28:00;;;;;;;25.83;12.90;;;;;;;;;;5042579;28;20025;-77
2023/03/05 11:30:28;;;;;;;21.08;10.93;;;;;;;;;;5031847;28;20021;-76
2023/03/05 11:33:11;;;;;;;22.30;11.57;;;;;;;;;;5035338;28;20353;-76
2023/03/05 11:35:38;;;;;;;23.92;11.27;;;;;;;;;;5043715;28;20469;-77
2023/03/05 11:38:04;;;;;;;24.85;12.35;;;;;;;;;;5037194;28;20029;-76
2023/03/05 11:40:31;;;;;;;21.88;12.05;;;;;;;;;;5018128;28;20036;-76
2023/03/05 11:43:01;;;;;;;24.67;13.23;;;;;;;;;;5023874;28;20033;-75
2023/03/05 11:45:27;;;;;;;22.58;11.88;;;;;;;;;;5026261;28;20029;-72
2023/03/05 11:47:55;;;;;;;27.83;13.60;;;;;;;;;;5049985;28;20104;-72
2023/03/05 11:50:30;;;;;;;25.92;13.52;;;;;;;;;;5033159;28;20098;-81
2023/03/05 11:52:56;;;;;;;24.60;13.45;;;;;;;;;;5036418;28;20025;-79
2023/03/05 11:55:40;;;;;;;24.58;13.35;;;;;;;;;;5044760;28;20030;-80
2023/03/05 11:58:06;;;;;;;24.48;14.02;;;;;;;;;;5048425;28;20375;-80
2023/03/05 12:00:33;;;;;;;24.13;12.73;;;;;;;;;;5021829;28;20026;-80
2023/03/05 12:03:01;;;;;;;29.15;15.60;;;;;;;;;;5026342;28;20033;-80
2023/03/05 12:05:27;;;;;;;22.40;14.45;;;;;;;;;;5046908;28;20025;-74
2023/03/05 12:07:56;;;;;;;23.80;12.93;;;;;;;;;;5025551;28;20055;-74
2023/03/05 12:10:23;;;;;;;24.98;12.95;;;;;;;;;;5026022;28;20051;-75
2023/03/05 12:12:57;;;;;;;26.05;14.13;;;;;;;;;;5029643;28;20544;-73
2023/03/05 12:15:37;;;;;;;27.80;14.35;;;;;;;;;;5023311;28;20040;-74
2023/03/05 12:18:08;;;;;;;27.20;14.85;;;;;;;;;;5041953;28;20853;-75
2023/03/05 12:20:48;;;;;;;23.52;13.02;;;;;;;;;;5046392;28;20021;-74
2023/03/05 12:23:15;;;;;;;30.17;14.35;;;;;;;;;;5044186;28;20059;-74
2023/03/05 12:25:45;;;;;;;24.00;13.48;;;;;;;;;;5052158;28;20125;-73
2023/03/05 12:28:12;;;;;;;23.48;14.27;;;;;;;;;;5046292;28;20051;-72
2023/03/05 12:30:38;;;;;;;25.23;13.63;;;;;;;;;;5025466;28;20069;-73
2023/03/05 12:33:04;;;;;;;26.47;13.03;;;;;;;;;;5017489;28;20409;-72
2023/03/05 12:35:37;;;;;;;25.75;14.73;;;;;;;;;;5038775;28;20116;-71
2023/03/05 12:38:15;;;;;;;31.50;13.90;;;;;;;;;;5036242;28;20252;-73
2023/03/05 12:40:40;;;;;;;23.95;12.77;;;;;;;;;;5045106;28;20028;-73
2023/03/05 12:43:26;;;;;;;22.48;12.07;;;;;;;;;;5046642;28;20438;-75
2023/03/05 12:46:11;;;;;;;22.10;12.57;;;;;;;;;;5047475;28;20112;-76
2023/03/05 12:48:40;;;;;;;28.45;13.25;;;;;;;;;;5046541;28;20034;-75
2023/03/05 12:51:10;;;;;;;25.42;11.65;;;;;;;;;;5015708;28;20036;-74
2023/03/05 12:53:35;;;;;;;24.27;11.90;;;;;;;;;;5032481;28;20030;-76
2023/03/05 12:56:20;;;;;;;27.17;12.80;;;;;;;;;;5048831;28;20044;-76
2023/03/05 12:58:48;;;;;;;22.05;11.55;;;;;;;;;;5016202;28;20029;-72
2023/03/05 13:01:16;;;;;;;22.52;11.23;;;;;;;;;;5023776;28;20112;-74
2023/03/05 13:03:59;;;;;;;26.47;12.57;;;;;;;;;;5046258;28;20063;-79
2023/03/05 13:06:29;;;;;;;22.83;11.90;;;;;;;;;;5014332;28;20765;-80
2023/03/05 13:09:02;;;;;;;23.85;12.90;;;;;;;;;;5027495;28;20029;-79
2023/03/05 13:11:29;;;;;;;18.88;11.55;;;;;;;;;;5031009;28;20025;-78
2023/03/05 13:13:55;;;;;;;19.15;10.50;;;;;;;;;;5052621;28;20063;-79
2023/03/05 13:16:28;;;;;;;22.52;12.68;;;;;;;;;;5054198;28;20056;-81
2023/03/05 13:19:15;;;;;;;23.65;10.63;;;;;;;;;;5027038;28;20537;-71
2023/03/05 13:21:40;;;;;;;21.10;11.18;;;;;;;;;;5016646;28;20049;-77
2023/03/05 13:24:13;;;;;;;19.50;11.53;;;;;;;;;;5046658;28;20033;-80
2023/03/05 13:26:39;;;;;;;23.08;11.38;;;;;;;;;;5053311;28;20310;-80
2023/03/05 13:29:15;;;;;;;20.17;10.80;;;;;;;;;;5043300;28;20057;-81
2023/03/05 13:31:42;;;;;;;21.83;11.38;;;;;;;;;;5041247;28;20034;-80
2023/03/05 13:34:10;;;;;;;22.08;11.45;;;;;;;;;;5036685;28;20032;-80
2023/03/05 13:36:36;;;;;;;19.58;10.55;;;;;;;;;;5044055;28;20034;-81
2023/03/05 13:39:02;;;;;;;18.23;10.05;;;;;;;;;;5049379;28;20051;-74
2023/03/05 13:41:28;;;;;;;19.65;10.80;;;;;;;;;;5026485;28;20025;-73
2023/03/05 13:43:58;;;;;;;20.95;11.27;;;;;;;;;;5023678;28;20029;-73
2023/03/05 13:46:26;;;;;;;17.80;10.10;;;;;;;;;;5024701;28;20036;-76
2023/03/05 13:48:51;;;;;;;21.65;11.82;;;;;;;;;;5017161;28;20128;-71
2023/03/05 13:51:17;;;;;;;22.92;11.00;;;;;;;;;;5032342;28;20098;-74
2023/03/05 13:53:42;;;;;;;25.80;11.25;;;;;;;;;;5029346;28;20056;-72
2023/03/05 13:56:12;;;;;;;23.95;11.77;;;;;;;;;;5048826;28;20059;-74
2023/03/05 13:58:46;;;;;;;19.80;10.75;;;;;;;;;;5026187;28;20500;-73
2023/03/05 14:01:12;;;;;;;22.73;10.57;;;;;;;;;;5043145;28;20029;-72
2023/03/05 14:03:37;;;;;;;19.20;10.00;;;;;;;;;;5034448;28;20039;-73
2023/03/05 14:06:06;;;;;;;21.13;10.00;;;;;;;;;;5045845;28;20033;-73
2023/03/05 14:08:32;;;;;;;19.20;9.88;;;;;;;;;;5045977;28;20028;-73
2023/03/05 14:11:09;;;;;;;21.15;11.07;;;;;;;;;;5016805;28;20495;-73
2023/03/05 14:13:35;;;;;;;19.65;9.77;;;;;;;;;;5029730;28;20489;-78
2023/03/05 14:16:06;;;;;;;20.65;10.52;;;;;;;;;;5012243;28;20033;-75
2023/03/05 14:18:31;;;;;;;22.17;10.48;;;;;;;;;;5024449;28;20029;-75
2023/03/05 14:20:56;;;;;;;20.15;10.63;;;;;;;;;;5042411;28;20365;-75